Time;durP1;ratioP1;P1;durP2;ratioP2;P2;SDS_P1;SDS_P2;PMS_P1;PMS_P2;Temp;Humidity;BMP_temperature;BMP_pressure;BME280_temperature;BME280_humidity;BME280_pressure;Samples;Min_cycle;Max_cycle;Signal;HPM_P1;HPM_P2
2022/07/19 00:01:48;;;;;;;;;9.33;8.33;;;;;31.11;24.02;101038.25;4948923;28;45144;-63
2022/07/19 00:04:13;;;;;;;;;9.00;9.00;;;;;31.09;23.87;101034.69;4948240;28;45361;-62
2022/07/19 00:06:38;;;;;;;;;7.67;7.67;;;;;31.06;23.79;101032.09;4952140;28;45707;-63
2022/07/19 00:09:04;;;;;;;;;10.67;8.00;;;;;30.88;23.88;101000.84;4951990;28;45183;-63
2022/07/19 00:11:29;;;;;;;;;11.33;7.67;;;;;31.04;23.94;101028.53;4946112;28;45095;-63
2022/07/19 00:13:55;;;;;;;;;10.00;8.33;;;;;31.01;24.08;101024.06;4948038;28;44957;-63
2022/07/19 00:16:20;;;;;;;;;9.33;9.33;;;;;30.58;23.70;100949.16;4948860;28;45013;-64
2022/07/19 00:18:46;;;;;;;;;9.67;9.00;;;;;30.94;23.74;101011.56;4948879;28;45238;-62
2022/07/19 00:21:11;;;;;;;;;10.00;7.67;;;;;30.84;23.87;100999.25;4946338;28;45071;-63
2022/07/19 00:23:37;;;;;;;;;8.00;6.33;;;;;30.83;24.01;101006.63;4948619;28;45182;-62
2022/07/19 00:26:03;;;;;;;;;7.67;7.33;;;;;30.88;23.81;101018.28;4949002;28;45164;-63
2022/07/19 00:28:28;;;;;;;;;10.00;8.00;;;;;30.88;23.54;101014.66;4947606;28;45429;-63
2022/07/19 00:30:54;;;;;;;;;6.00;6.00;;;;;30.85;23.56;101018.50;4953303;28;45348;-62
2022/07/19 00:33:19;;;;;;;;;9.67;8.00;;;;;30.76;23.80;100998.78;4952133;28;45852;-62
2022/07/19 00:35:45;;;;;;;;;7.67;6.33;;;;;30.83;23.58;101014.91;4954998;28;45384;-62
2022/07/19 00:38:12;;;;;;;;;5.67;5.67;;;;;30.73;23.72;101008.09;4944980;28;45346;-63
2022/07/19 00:40:40;;;;;;;;;6.67;5.33;;;;;30.71;23.50;100998.16;4946949;28;45204;-63
2022/07/19 00:43:06;;;;;;;;;6.00;5.33;;;;;30.77;23.33;101012.50;4951128;28;44992;-62
2022/07/19 00:45:32;;;;;;;;;4.00;4.00;;;;;30.67;23.46;101000.16;4944801;28;45561;-63
2022/07/19 00:47:57;;;;;;;;;4.00;3.67;;;;;30.54;23.39;100979.72;4949798;28;45069;-62
2022/07/19 00:50:23;;;;;;;;;8.00;5.00;;;;;30.72;23.66;101011.81;4945740;28;45171;-62
2022/07/19 00:52:52;;;;;;;;;5.00;5.00;;;;;30.50;23.23;100974.38;4947642;28;45154;-63
2022/07/19 00:55:19;;;;;;;;;5.00;5.00;;;;;30.66;23.46;101004.78;4948018;28;45674;-63
2022/07/19 00:57:45;;;;;;;;;9.33;4.33;;;;;30.67;23.34;101006.56;4946392;28;45763;-63
2022/07/19 01:00:12;;;;;;;;;6.33;5.00;;;;;30.66;23.21;101003.91;4951167;28;45133;-63
2022/07/19 01:02:38;;;;;;;;;5.00;5.00;;;;;30.65;23.51;101010.38;4947443;28;45198;-63
2022/07/19 01:05:05;;;;;;;;;4.33;4.33;;;;;30.63;23.67;100995.78;4952359;28;46235;-63
2022/07/19 01:07:31;;;;;;;;;3.67;3.67;;;;;30.61;23.67;100995.88;4951402;28;45134;-62
2022/07/19 01:09:57;;;;;;;;;4.00;4.00;;;;;30.58;23.81;100996.03;4953121;28;45515;-63
2022/07/19 01:12:22;;;;;;;;;3.33;3.33;;;;;30.59;24.06;100994.16;4952492;28;44990;-63
2022/07/19 01:14:49;;;;;;;;;4.67;4.67;;;;;30.57;23.79;100997.00;4941018;28;45656;-62
2022/07/19 01:17:15;;;;;;;;;9.00;6.33;;;;;30.55;23.82;101001.69;4946898;28;44988;-63
2022/07/19 01:19:43;;;;;;;;;7.00;7.00;;;;;30.54;23.82;100991.66;4943149;28;45079;-62
2022/07/19 01:22:08;;;;;;;;;7.00;7.00;;;;;30.53;24.41;100995.38;4949075;28;45019;-62
2022/07/19 01:24:34;;;;;;;;;8.33;5.67;;;;;30.51;23.92;100994.59;4946398;28;45738;-62
2022/07/19 01:26:59;;;;;;;;;8.00;8.00;;;;;30.35;24.30;100971.53;4950929;28;45036;-63
2022/07/19 01:29:25;;;;;;;;;6.00;6.00;;;;;30.40;24.45;100983.22;4948970;28;45116;-62
2022/07/19 01:31:50;;;;;;;;;6.67;6.67;;;;;30.44;24.37;100987.59;4951123;28;45078;-63
2022/07/19 01:34:15;;;;;;;;;7.33;6.00;;;;;30.42;24.48;100987.66;4950535;28;45799;-61
2022/07/19 01:36:41;;;;;;;;;7.33;5.00;;;;;30.39;25.05;100987.88;4950443;28;45134;-62
2022/07/19 01:39:06;;;;;;;;;9.67;8.33;;;;;30.34;24.45;100978.88;4947356;28;45117;-62
2022/07/19 01:41:31;;;;;;;;;8.00;7.00;;;;;30.21;24.88;100958.44;4945024;28;45171;-62
2022/07/19 01:43:57;;;;;;;;;8.00;8.00;;;;;30.11;24.65;100942.41;4947229;28;45601;-61
2022/07/19 01:46:22;;;;;;;;;6.67;5.00;;;;;30.30;24.83;100986.44;4948060;28;45185;-61
2022/07/19 01:48:47;;;;;;;;;4.67;4.33;;;;;30.29;24.56;100986.50;4947358;28;45003;-62
2022/07/19 01:51:13;;;;;;;;;7.67;5.00;;;;;30.25;24.92;100980.25;4945219;28;45202;-63
2022/07/19 01:53:39;;;;;;;;;6.00;5.33;;;;;30.24;25.25;100984.00;4947113;28;45238;-62
2022/07/19 01:56:05;;;;;;;;;4.67;4.67;;;;;30.23;25.37;100979.47;4948181;28;45137;-62
2022/07/19 01:58:31;;;;;;;;;7.00;5.00;;;;;30.13;25.27;100972.66;4935516;28;45163;-62
2022/07/19 02:00:56;;;;;;;;;7.00;5.50;;;;;30.16;25.40;100985.38;4947210;28;45217;-62
2022/07/19 02:03:21;;;;;;;;;6.00;5.00;;;;;30.13;24.79;100986.44;4950958;28;45588;-62
2022/07/19 02:05:47;;;;;;;;;4.33;4.00;;;;;30.07;24.80;100979.34;4948738;28;45127;-62
2022/07/19 02:08:13;;;;;;;;;8.00;8.00;;;;;30.09;25.08;100982.03;4950759;28;45091;-61
2022/07/19 02:10:38;;;;;;;;;7.00;7.00;;;;;30.01;25.33;100968.66;4950612;28;45230;-63
2022/07/19 02:13:03;;;;;;;;;4.67;4.67;;;;;30.01;25.50;100974.16;4944731;28;45464;-62
2022/07/19 02:15:29;;;;;;;;;5.00;5.00;;;;;29.97;25.57;100977.16;4947078;28;45195;-62
2022/07/19 02:17:55;;;;;;;;;6.33;3.67;;;;;30.03;25.66;100976.84;4925417;28;45205;-63
2022/07/19 02:20:21;;;;;;;;;8.00;6.33;;;;;29.88;25.18;100959.22;4945061;28;45524;-62
2022/07/19 02:22:46;;;;;;;;;7.50;6.00;;;;;29.92;25.52;100960.88;4943022;28;45578;-61
2022/07/19 02:25:12;;;;;;;;;4.67;4.00;;;;;29.99;25.33;100965.09;4945792;28;45363;-62
2022/07/19 02:27:37;;;;;;;;;3.33;3.33;;;;;29.86;25.14;100950.16;4929431;28;45347;-61
2022/07/19 02:30:04;;;;;;;;;9.33;6.33;;;;;29.93;25.01;100970.94;4949253;28;45011;-62
2022/07/19 02:32:29;;;;;;;;;6.00;3.67;;;;;29.91;24.51;100965.50;4950811;28;45458;-62
2022/07/19 02:34:54;;;;;;;;;6.67;5.33;;;;;29.88;24.84;100957.38;4949230;28;45098;-61
2022/07/19 02:37:20;;;;;;;;;5.67;5.67;;;;;29.85;24.83;100954.78;4950783;28;45011;-62
2022/07/19 02:39:45;;;;;;;;;4.33;4.33;;;;;29.85;24.58;100959.41;4948174;28;45207;-62
2022/07/19 02:42:10;;;;;;;;;6.67;3.00;;;;;29.83;24.76;100959.50;4943232;28;45083;-62
2022/07/19 02:44:36;;;;;;;;;4.00;4.00;;;;;29.68;24.72;100947.34;4950496;28;44889;-62
2022/07/19 02:47:01;;;;;;;;;6.67;3.67;;;;;29.77;24.76;100952.41;4932230;28;45139;-62
2022/07/19 02:49:26;;;;;;;;;3.00;3.00;;;;;29.41;24.89;100897.31;4944160;28;45005;-61
2022/07/19 02:51:52;;;;;;;;;6.00;4.67;;;;;29.31;25.23;100872.09;4948632;28;45157;-62
2022/07/19 02:54:17;;;;;;;;;5.33;3.33;;;;;29.74;25.28;100954.41;4945279;28;44954;-62
2022/07/19 02:56:42;;;;;;;;;4.00;4.00;;;;;29.67;25.51;100941.94;4937324;28;45113;-61
2022/07/19 02:59:08;;;;;;;;;7.00;4.33;;;;;29.71;25.16;100952.69;4947459;28;45664;-62
2022/07/19 03:01:33;;;;;;;;;3.33;3.33;;;;;29.67;25.52;100945.56;4952036;28;45574;-61
2022/07/19 03:03:59;;;;;;;;;4.00;4.00;;;;;29.69;25.62;100943.63;4950352;28;45140;-63
2022/07/19 03:06:25;;;;;;;;;4.00;4.00;;;;;29.59;25.25;100925.78;4954097;28;45170;-62
2022/07/19 03:08:50;;;;;;;;;9.00;5.33;;;;;29.66;25.31;100943.75;4954673;28;45072;-62
2022/07/19 03:11:16;;;;;;;;;7.33;3.33;;;;;29.61;25.61;100933.97;4954437;28;45478;-61
2022/07/19 03:13:41;;;;;;;;;9.33;8.33;;;;;29.59;25.38;100937.69;4948907;28;49287;-62
2022/07/19 03:16:07;;;;;;;;;4.00;4.00;;;;;29.50;25.43;100924.38;4949940;28;45083;-62
2022/07/19 03:18:32;;;;;;;;;5.67;4.00;;;;;29.50;25.43;100924.38;4949056;28;45100;-62
2022/07/19 03:20:58;;;;;;;;;4.00;4.00;;;;;29.46;25.34;100922.75;4948627;28;45674;-62
2022/07/19 03:23:26;;;;;;;;;6.00;4.67;;;;;29.41;25.96;100922.97;4941677;28;45425;-62
2022/07/19 03:25:51;;;;;;;;;2.33;2.33;;;;;29.51;25.34;100936.28;4954147;28;45102;-63
2022/07/19 03:28:17;;;;;;;;;6.33;4.67;;;;;29.51;25.94;100948.19;4949787;28;45237;-62
2022/07/19 03:30:42;;;;;;;;;4.00;4.00;;;;;29.49;26.02;100946.50;4953624;28;49013;-62
2022/07/19 03:33:08;;;;;;;;;7.67;5.33;;;;;29.45;26.11;100939.34;4952569;28;45179;-62
2022/07/19 03:35:34;;;;;;;;;6.00;5.00;;;;;29.48;25.72;100940.06;4955076;28;45074;-62
2022/07/19 03:37:59;;;;;;;;;4.33;4.00;;;;;29.45;25.70;100940.25;4947380;28;45035;-62
2022/07/19 03:40:24;;;;;;;;;6.33;6.33;;;;;29.41;26.14;100955.13;4943448;28;45680;-62
2022/07/19 03:42:49;;;;;;;;;4.33;4.33;;;;;29.38;26.37;100947.88;4949741;28;49426;-62
2022/07/19 03:45:15;;;;;;;;;4.67;4.67;;;;;29.25;25.88;100926.56;4946628;28;45281;-62
2022/07/19 03:47:40;;;;;;;;;6.33;6.00;;;;;29.37;26.00;100945.25;4947461;28;45211;-62
2022/07/19 03:50:06;;;;;;;;;8.00;6.00;;;;;29.34;26.28;100945.38;4948557;28;45142;-62
2022/07/19 03:52:31;;;;;;;;;5.33;5.00;;;;;29.20;26.39;100929.53;4936356;28;45516;-62
2022/07/19 03:54:57;;;;;;;;;7.00;7.00;;;;;29.27;26.44;100938.38;4947315;28;45450;-61
2022/07/19 03:57:22;;;;;;;;;8.67;5.67;;;;;29.30;26.45;100943.72;4945106;28;45560;-62
2022/07/19 03:59:47;;;;;;;;;5.33;5.33;;;;;29.17;26.45;100924.13;4949548;28;45066;-62
2022/07/19 04:02:13;;;;;;;;;5.33;5.00;;;;;29.23;26.53;100941.28;4949897;28;45530;-63
2022/07/19 04:04:38;;;;;;;;;9.67;5.33;;;;;29.25;26.16;100945.81;4953624;28;48678;-64
2022/07/19 04:07:03;;;;;;;;;7.00;5.00;;;;;29.21;26.07;100942.34;4954364;28;45079;-63
2022/07/19 04:09:29;;;;;;;;;5.00;5.00;;;;;29.20;26.66;100946.97;4949294;28;45526;-61
2022/07/19 04:11:54;;;;;;;;;6.00;5.33;;;;;29.20;26.59;100949.69;4952967;28;45271;-62
2022/07/19 04:14:19;;;;;;;;;3.00;3.00;;;;;29.15;26.23;100943.47;4950169;28;45103;-62
2022/07/19 04:16:45;;;;;;;;;6.67;6.67;;;;;29.12;26.21;100942.72;4947897;28;45189;-61
2022/07/19 04:19:10;;;;;;;;;8.00;7.00;;;;;29.09;26.30;100938.28;4946021;28;45711;-62
2022/07/19 04:21:35;;;;;;;;;5.00;5.00;;;;;29.09;26.41;100945.63;4946882;28;45192;-62
2022/07/19 04:24:01;;;;;;;;;10.00;6.33;;;;;28.97;26.57;100930.59;4935276;28;45171;-61
2022/07/19 04:26:26;;;;;;;;;7.00;7.00;;;;;29.09;26.56;100948.38;4954423;28;45153;-62
2022/07/19 04:28:51;;;;;;;;;8.00;6.33;;;;;28.93;26.48;100915.22;4936658;28;45547;-62
2022/07/19 04:31:17;;;;;;;;;5.67;5.67;;;;;29.08;26.96;100942.00;4942366;28;45118;-62
2022/07/19 04:33:43;;;;;;;;;4.00;4.00;;;;;28.88;26.46;100914.56;4934356;28;45205;-61
2022/07/19 04:36:08;;;;;;;;;7.33;4.00;;;;;29.07;27.04;100950.31;4940760;28;45107;-61
2022/07/19 04:38:33;;;;;;;;;6.00;6.00;;;;;29.06;26.98;100943.94;4939320;28;45193;-62
2022/07/19 04:40:59;;;;;;;;;6.67;5.00;;;;;29.05;26.61;100950.38;4934634;28;44934;-62
2022/07/19 04:43:24;;;;;;;;;6.67;5.67;;;;;29.06;26.92;100941.19;4947060;28;45417;-64
2022/07/19 04:45:49;;;;;;;;;4.67;4.67;;;;;29.06;26.61;100934.78;4936111;28;45000;-62
2022/07/19 04:48:14;;;;;;;;;8.33;5.00;;;;;29.06;27.01;100937.53;4933347;28;45159;-62
2022/07/19 04:50:41;;;;;;;;;7.00;6.00;;;;;29.06;26.89;100943.94;4931702;28;55519;-62
2022/07/19 04:53:07;;;;;;;;;5.00;5.00;;;;;29.04;27.13;100935.75;4938655;28;47047;-62
2022/07/19 04:55:32;;;;;;;;;5.67;5.00;;;;;29.05;26.83;100942.13;4940708;28;45319;-62
2022/07/19 04:58:00;;;;;;;;;8.33;7.00;;;;;28.95;26.61;100919.66;4933243;28;45743;-62
2022/07/19 05:00:26;;;;;;;;;6.00;6.00;;;;;29.02;26.66;100934.03;4931755;28;45087;-62
2022/07/19 05:02:54;;;;;;;;;6.33;6.00;;;;;28.96;27.24;100926.97;4931927;28;45170;-62
2022/07/19 05:05:19;;;;;;;;;10.67;6.33;;;;;28.96;26.73;100920.59;4940652;28;45395;-62
2022/07/19 05:07:45;;;;;;;;;7.00;7.00;;;;;28.95;27.30;100930.66;4935524;28;45375;-62
2022/07/19 05:10:11;;;;;;;;;6.33;5.00;;;;;28.79;27.29;100900.28;4934336;28;45099;-63
2022/07/19 05:12:37;;;;;;;;;7.00;5.00;;;;;28.90;27.00;100921.75;4940364;28;45013;-63
2022/07/19 05:15:03;;;;;;;;;5.67;5.67;;;;;28.98;26.91;100935.16;4933964;28;45311;-62
2022/07/19 05:17:28;;;;;;;;;7.67;7.67;;;;;28.94;27.33;100922.50;4943772;28;45180;-61
2022/07/19 05:19:54;;;;;;;;;5.67;5.33;;;;;28.91;26.98;100923.56;4933304;28;45135;-62
2022/07/19 05:22:19;;;;;;;;;9.67;7.67;;;;;28.96;27.42;100923.34;4932822;28;45015;-63
2022/07/19 05:24:44;;;;;;;;;8.67;8.33;;;;;28.77;26.97;100891.19;4936342;28;45161;-62
2022/07/19 05:27:10;;;;;;;;;7.00;7.00;;;;;28.96;26.94;100935.22;4941268;28;46143;-63
2022/07/19 05:29:35;;;;;;;;;7.67;7.00;;;;;28.96;27.49;100929.72;4932830;28;45434;-63
2022/07/19 05:32:01;;;;;;;;;6.33;6.33;;;;;28.97;27.09;100922.34;4935919;28;44973;-63
2022/07/19 05:34:26;;;;;;;;;6.67;6.67;;;;;29.00;27.65;100924.97;4941860;28;44975;-64
2022/07/19 05:36:51;;;;;;;;;8.00;6.33;;;;;28.88;27.50;100909.94;4930947;28;46214;-63
2022/07/19 05:39:17;;;;;;;;;6.33;6.33;;;;;29.00;27.62;100919.47;4931481;28;44962;-61
2022/07/19 05:41:43;;;;;;;;;11.33;8.67;;;;;29.03;27.27;100925.69;4941611;28;45086;-61
2022/07/19 05:44:09;;;;;;;;;10.00;7.67;;;;;29.00;27.70;100922.22;4939501;28;45261;-61
2022/07/19 05:46:37;;;;;;;;;7.33;6.67;;;;;28.94;28.01;100928.00;4933778;28;45430;-63
2022/07/19 05:49:02;;;;;;;;;11.33;8.33;;;;;28.90;27.45;100926.38;4934184;28;45162;-63
2022/07/19 05:51:27;;;;;;;;;10.67;8.67;;;;;28.89;27.96;100914.50;4934087;28;45110;-62
2022/07/19 05:53:53;;;;;;;;;8.33;7.33;;;;;28.96;27.37;100915.97;4946971;28;45493;-62
2022/07/19 05:56:18;;;;;;;;;15.00;13.67;;;;;29.00;27.77;100912.09;4941290;28;45598;-63
2022/07/19 05:58:43;;;;;;;;;9.00;7.00;;;;;29.04;27.38;100912.84;4936999;28;45351;-63
2022/07/19 06:01:17;;;;;;;;;8.00;7.33;;;;;29.08;27.75;100913.59;4932452;28;45220;-62
2022/07/19 06:03:44;;;;;;;;;9.00;9.00;;;;;29.01;27.22;100893.75;4943849;28;45583;-63
2022/07/19 06:06:09;;;;;;;;;9.33;8.00;;;;;29.14;27.29;100910.56;4935406;28;46727;-64
2022/07/19 06:08:34;;;;;;;;;11.67;11.00;;;;;29.12;27.84;100905.13;4937725;28;45024;-63
2022/07/19 06:11:00;;;;;;;;;8.33;8.00;;;;;29.08;27.57;100899.84;4938740;28;47062;-62
2022/07/19 06:13:26;;;;;;;;;12.00;11.00;;;;;29.23;27.79;100899.13;4933427;28;44893;-62
2022/07/19 06:15:51;;;;;;;;;12.00;10.00;;;;;29.31;27.34;100902.38;4945310;28;45147;-63
2022/07/19 06:18:17;;;;;;;;;14.00;12.33;;;;;29.34;27.59;100898.59;4949982;28;45501;-64
2022/07/19 06:20:43;;;;;;;;;11.00;8.00;;;;;29.39;27.06;100902.88;4944418;28;45469;-64
2022/07/19 06:23:08;;;;;;;;;12.67;9.00;;;;;29.43;27.12;100897.22;4948894;28;45287;-63
2022/07/19 06:25:33;;;;;;;;;11.67;8.33;;;;;29.47;27.51;100899.75;4933908;28;46016;-63
2022/07/19 06:27:59;;;;;;;;;9.33;9.33;;;;;29.47;27.29;100890.59;4951809;28;45535;-63
2022/07/19 06:30:24;;;;;;;;;9.67;9.67;;;;;29.54;28.27;100892.97;4949337;28;45082;-60
2022/07/19 06:32:50;;;;;;;;;11.00;10.33;;;;;29.57;27.94;100889.19;4952841;28;45155;-60
2022/07/19 06:35:15;;;;;;;;;9.33;9.33;;;;;29.58;27.14;100880.84;4945764;28;46226;-60
2022/07/19 06:37:40;;;;;;;;;9.67;8.00;;;;;29.64;27.27;100887.00;4932300;28;45204;-62
2022/07/19 06:40:06;;;;;;;;;9.00;7.00;;;;;29.69;28.27;100884.91;4934011;28;45210;-61
2022/07/19 06:42:32;;;;;;;;;13.33;11.00;;;;;29.72;29.62;100885.63;4939189;28;45393;-61
2022/07/19 06:45:01;;;;;;;;;13.00;11.00;;;;;29.80;27.80;100879.78;4943213;28;45489;-60
2022/07/19 06:47:27;;;;;;;;;13.00;11.67;;;;;29.86;27.86;100876.66;4937088;28;45453;-61
2022/07/19 06:49:52;;;;;;;;;12.33;10.33;;;;;29.90;27.68;100875.56;4927526;28;45346;-61
2022/07/19 06:52:18;;;;;;;;;8.67;8.67;;;;;29.94;28.59;100873.53;4919200;28;45582;-61
2022/07/19 06:54:43;;;;;;;;;9.00;9.00;;;;;29.97;28.31;100865.09;4917752;28;46208;-61
2022/07/19 06:57:08;;;;;;;;;12.67;12.33;;;;;30.01;28.29;100872.22;4918173;28;45369;-60
2022/07/19 06:59:34;;;;;;;;;13.00;10.00;;;;;30.05;28.12;100868.34;4918704;28;45350;-60
2022/07/19 07:01:59;;;;;;;;;13.67;11.67;;;;;30.09;27.51;100869.94;4918512;28;45314;-61
2022/07/19 07:04:24;;;;;;;;;12.00;10.67;;;;;30.14;27.94;100869.69;4931794;28;46256;-61
2022/07/19 07:06:50;;;;;;;;;11.00;10.00;;;;;30.16;27.24;100872.38;4938195;28;45348;-59
2022/07/19 07:09:15;;;;;;;;;7.67;7.67;;;;;30.22;26.79;100869.31;4929528;28;45496;-61
2022/07/19 07:11:40;;;;;;;;;15.00;11.67;;;;;30.20;27.62;100868.50;4937236;28;45490;-60
2022/07/19 07:14:06;;;;;;;;;12.67;10.33;;;;;30.31;27.04;100877.97;4922364;28;46076;-61
2022/07/19 07:16:31;;;;;;;;;9.00;9.00;;;;;30.38;27.34;100873.03;4929275;28;45469;-60
2022/07/19 07:18:56;;;;;;;;;8.67;8.00;;;;;30.07;27.62;100799.38;4928651;28;45381;-60
2022/07/19 07:21:22;;;;;;;;;10.00;8.33;;;;;30.51;27.09;100859.47;4925542;28;45498;-60
2022/07/19 07:23:47;;;;;;;;;13.67;10.00;;;;;30.50;27.25;100850.28;4919879;28;46897;-60
2022/07/19 07:26:13;;;;;;;;;13.33;10.00;;;;;30.60;27.28;100856.19;4934628;28;45470;-60
2022/07/19 07:28:38;;;;;;;;;12.00;11.00;;;;;30.43;26.51;100814.91;4934671;28;45515;-60
2022/07/19 07:31:04;;;;;;;;;9.33;9.00;;;;;30.72;26.94;100853.72;4927774;28;45560;-60
2022/07/19 07:33:29;;;;;;;;;10.00;9.67;;;;;30.76;26.25;100850.72;4920642;28;45922;-60
2022/07/19 07:35:54;;;;;;;;;13.00;10.00;;;;;30.81;26.78;100845.81;4926014;28;45331;-60
2022/07/19 07:38:20;;;;;;;;;9.67;9.33;;;;;30.78;26.28;100831.31;4932349;28;45006;-61
2022/07/19 07:40:46;;;;;;;;;8.33;8.33;;;;;30.94;25.85;100840.50;4921379;28;45361;-61
2022/07/19 07:43:11;;;;;;;;;9.33;9.33;;;;;31.01;25.89;100844.69;4921180;28;46912;-61
2022/07/19 07:45:37;;;;;;;;;11.33;11.33;;;;;31.10;26.34;100846.06;4922646;28;45268;-59
2022/07/19 07:48:02;;;;;;;;;11.00;9.33;;;;;31.15;26.21;100837.50;4938820;28;45303;-59
2022/07/19 07:50:28;;;;;;;;;10.33;9.33;;;;;31.22;26.66;100837.03;4935568;28;45247;-60
2022/07/19 07:52:53;;;;;;;;;11.00;11.00;;;;;31.30;26.38;100838.44;4936326;28;46061;-59
2022/07/19 07:55:18;;;;;;;;;10.67;10.33;;;;;31.35;26.38;100839.06;4932455;28;46327;-60
2022/07/19 07:57:44;;;;;;;;;11.00;9.67;;;;;31.40;26.59;100832.31;4933838;28;45467;-60
2022/07/19 08:00:12;;;;;;;;;11.67;10.00;;;;;31.42;26.23;100823.94;4929128;28;45588;-60
2022/07/19 08:02:42;;;;;;;;;9.67;9.67;;;;;31.49;26.05;100824.44;4928478;28;46055;-60
2022/07/19 08:05:09;;;;;;;;;10.33;8.33;;;;;31.16;25.02;100756.47;4920096;28;45327;-64
2022/07/19 08:07:34;;;;;;;;;12.33;10.00;;;;;31.62;24.91;100820.00;4924425;28;45473;-65
2022/07/19 08:10:01;;;;;;;;;10.33;10.33;;;;;31.71;24.71;100827.75;4925880;28;45461;-65
2022/07/19 08:12:26;;;;;;;;;11.33;11.00;;;;;31.77;24.56;100812.66;4931264;28;46897;-64
2022/07/19 08:14:52;;;;;;;;;9.00;9.00;;;;;31.90;24.71;100813.66;4942163;28;45323;-66
2022/07/19 08:17:17;;;;;;;;;11.00;11.00;;;;;32.04;24.82;100812.81;4936365;28;45408;-64
2022/07/19 08:19:42;;;;;;;;;9.67;9.67;;;;;32.14;24.16;100813.13;4948382;28;44933;-64
2022/07/19 08:22:08;;;;;;;;;14.33;11.33;;;;;32.22;23.97;100798.84;4917661;28;45445;-64
2022/07/19 08:24:33;;;;;;;;;12.67;10.33;;;;;32.37;23.85;100805.25;4931465;28;45383;-65
2022/07/19 08:26:58;;;;;;;;;13.00;9.67;;;;;32.34;23.62;100773.19;4918153;28;45510;-65
2022/07/19 08:29:24;;;;;;;;;11.33;10.33;;;;;32.55;23.21;100790.22;4918291;28;45429;-65
2022/07/19 08:31:49;;;;;;;;;8.33;8.33;;;;;32.70;23.75;100793.91;4916039;28;46996;-64
2022/07/19 08:34:14;;;;;;;;;13.33;11.00;;;;;32.76;23.24;100782.44;4916628;28;45396;-64
2022/07/19 08:36:40;;;;;;;;;13.00;11.00;;;;;32.74;23.48;100762.28;4917378;28;45501;-65
2022/07/19 08:39:05;;;;;;;;;12.33;10.00;;;;;33.00;22.95;100793.75;4917289;28;45567;-65
2022/07/19 08:41:30;;;;;;;;;13.67;11.67;;;;;33.10;22.92;100784.81;4916850;28;45316;-65
2022/07/19 08:44:01;;;;;;;;;8.33;8.33;;;;;33.20;23.03;100789.66;4916611;28;45431;-64
2022/07/19 08:46:26;;;;;;;;;11.00;11.00;;;;;32.95;22.90;100717.53;4917048;28;45383;-65
2022/07/19 08:48:53;;;;;;;;;14.00;12.00;;;;;33.43;22.59;100781.66;4916559;28;45367;-65
2022/07/19 08:51:20;;;;;;;;;13.33;12.33;;;;;33.44;22.29;100766.78;4916605;28;46572;-64
2022/07/19 08:53:46;;;;;;;;;13.67;10.00;;;;;33.64;21.75;100781.16;4916537;28;45641;-64
2022/07/19 08:58:56;;;;;;;;;29.75;28.25;;;;;33.70;22.00;100769.66;4916970;28;45468;-65
2022/07/19 09:01:22;;;;;;;;;8.00;7.67;;;;;33.82;21.08;100777.09;4895758;28;47076;-63
2022/07/19 09:04:08;;;;;;;;;11.67;10.00;;;;;33.94;21.86;100769.78;4897399;28;45435;-64
2022/07/19 09:06:47;;;;;;;;;12.67;12.67;;;;;33.65;20.77;100699.81;4897657;28;45450;-65
2022/07/19 09:09:16;;;;;;;;;15.75;14.50;;;;;33.96;20.91;100745.63;4897548;28;45394;-65
2022/07/19 09:11:50;;;;;;;;;7.67;7.67;;;;;34.16;21.64;100764.47;4896401;28;45554;-64
2022/07/19 09:14:20;;;;;;;;;13.67;11.33;;;;;34.27;20.51;100765.59;4897710;28;45360;-65
2022/07/19 09:16:50;;;;;;;;;12.00;9.67;;;;;34.35;20.05;100754.84;4902093;28;45648;-64
2022/07/19 09:19:16;;;;;;;;;14.33;11.67;;;;;34.45;20.35;100750.41;4905126;28;45428;-65
2022/07/19 09:22:05;;;;;;;;;12.33;12.33;;;;;34.57;20.01;100747.69;4897128;28;45267;-64
2022/07/19 09:24:33;;;;;;;;;10.67;9.00;;;;;34.70;19.61;100752.22;4897178;28;45369;-63
2022/07/19 09:27:01;;;;;;;;;11.00;11.00;;;;;34.84;19.83;100744.75;4897161;28;45531;-64
2022/07/19 09:29:29;;;;;;;;;9.00;9.00;;;;;34.88;19.62;100727.75;4897227;29;45437;-65
2022/07/19 09:32:12;;;;;;;;;16.00;15.25;;;;;35.07;19.02;100737.44;4896884;28;46207;-63
2022/07/19 09:34:53;;;;;;;;;13.33;10.00;;;;;35.17;18.73;100732.06;4897069;28;45468;-65
2022/07/19 09:37:21;;;;;;;;;13.67;10.00;;;;;35.16;18.38;100721.97;4897092;28;45406;-65
2022/07/19 09:39:53;;;;;;;;;9.00;8.33;;;;;35.33;17.93;100715.13;4897556;28;45431;-64
2022/07/19 09:42:24;;;;;;;;;13.67;9.67;;;;;35.49;18.04;100723.13;4914493;28;46074;-65
2022/07/19 09:45:05;;;;;;;;;11.33;9.33;;;;;35.57;18.09;100727.09;4903944;28;45397;-65
2022/07/19 09:47:35;;;;;;;;;8.33;7.67;;;;;35.70;17.50;100735.31;4897192;28;45704;-64
2022/07/19 09:50:03;;;;;;;;;11.00;11.00;;;;;35.78;17.27;100724.50;4896891;28;45425;-64
2022/07/19 09:52:29;;;;;;;;;14.33;9.00;;;;;35.86;17.68;100720.22;4898245;28;46213;-63
2022/07/19 09:54:55;;;;;;;;;11.00;9.00;;;;;35.91;17.40;100715.19;4899892;28;45390;-63
2022/07/19 09:57:24;;;;;;;;;5.67;3.00;;;;;35.92;17.03;100691.91;4931231;28;45534;-64
2022/07/19 09:59:54;;;;;;;;;10.33;9.00;;;;;36.04;17.04;100702.03;4909806;28;45421;-65
2022/07/19 10:02:22;;;;;;;;;10.00;10.00;;;;;36.01;16.60;100691.16;4914808;28;46104;-65
2022/07/19 10:04:48;;;;;;;;;10.33;10.33;;;;;36.14;16.84;100700.28;4919132;28;45517;-64
2022/07/19 10:07:18;;;;;;;;;5.00;0.00;;;;;36.19;16.92;100693.47;4915041;28;45423;-65
2022/07/19 10:09:44;;;;;;;;;9.33;8.00;;;;;36.26;16.64;100695.63;4918764;28;45451;-64
2022/07/19 10:12:11;;;;;;;;;11.00;8.33;;;;;36.33;16.75;100691.34;4918902;28;45416;-64
2022/07/19 10:14:38;;;;;;;;;7.33;7.33;;;;;36.39;16.64;100686.25;4919061;28;45413;-64
2022/07/19 10:17:21;;;;;;;;;12.00;8.67;;;;;36.43;16.26;100691.44;4926423;28;45549;-64
2022/07/19 10:19:48;;;;;;;;;9.67;7.67;;;;;36.49;16.40;100681.69;4936248;28;45527;-66
2022/07/19 10:22:16;;;;;;;;;8.00;8.00;;;;;36.50;15.96;100677.91;4918805;28;46268;-67
2022/07/19 10:24:52;;;;;;;;;10.67;9.00;;;;;36.57;16.49;100678.25;4918667;28;45446;-65
2022/07/19 10:27:36;;;;;;;;;12.67;9.33;;;;;36.61;16.17;100665.84;4919027;28;45472;-64
2022/07/19 10:30:07;;;;;;;;;9.00;7.67;;;;;36.67;15.82;100668.09;4918855;28;45499;-63
2022/07/19 10:32:33;;;;;;;;;10.67;9.00;;;;;36.71;15.35;100658.50;4918879;28;45574;-64
2022/07/19 10:35:14;;;;;;;;;10.00;7.67;;;;;36.42;15.41;100595.06;4918736;28;45642;-64
2022/07/19 10:37:41;;;;;;;;;3.00;3.00;;;;;36.81;15.33;100641.88;4910669;28;45532;-66
2022/07/19 10:40:06;;;;;;;;;12.33;11.67;;;;;36.76;16.06;100630.28;4923376;28;45503;-65
2022/07/19 10:42:32;;;;;;;;;15.00;15.00;;;;;36.82;15.88;100630.63;4917987;28;46195;-63
2022/07/19 10:44:57;;;;;;;;;11.67;8.67;;;;;36.93;15.68;100631.59;4918512;28;45465;-65
2022/07/19 10:47:45;;;;;;;;;10.67;9.33;;;;;37.00;15.44;100632.84;4917971;28;45407;-65
2022/07/19 10:50:18;;;;;;;;;10.33;10.33;;;;;37.08;15.58;100636.72;4918611;28;45532;-64
2022/07/19 10:52:45;;;;;;;;;10.00;8.67;;;;;37.11;15.46;100626.31;4919041;28;45688;-63
2022/07/19 10:55:27;;;;;;;;;8.00;8.00;;;;;37.14;15.32;100626.94;4918641;28;45351;-64
2022/07/19 10:58:08;;;;;;;;;10.33;10.33;;;;;37.19;14.92;100623.72;4918413;28;45460;-65
2022/07/19 11:00:47;;;;;;;;;10.67;8.00;;;;;37.25;14.34;100631.59;4918530;28;45415;-65
2022/07/19 11:03:21;;;;;;;;;8.67;8.67;;;;;37.28;14.69;100622.09;4917922;28;45636;-66
2022/07/19 11:05:57;;;;;;;;;10.67;9.00;;;;;37.35;14.61;100614.94;4914020;28;45829;-66
2022/07/19 11:08:40;;;;;;;;;11.33;9.00;;;;;37.38;13.94;100614.66;4917817;28;45494;-63
2022/07/19 11:11:17;;;;;;;;;30.25;28.25;;;;;37.38;14.99;100609.97;4918148;28;45459;-64
2022/07/19 11:13:47;;;;;;;;;10.67;10.67;;;;;37.42;14.87;100608.69;4918232;28;47234;-66
2022/07/19 11:16:13;;;;;;;;;17.00;11.67;;;;;37.47;15.03;100605.50;4918436;28;45888;-64
2022/07/19 11:18:39;;;;;;;;;10.67;9.33;;;;;37.51;14.52;100606.97;4930581;28;45513;-64
2022/07/19 11:21:06;;;;;;;;;14.00;9.67;;;;;37.54;14.59;100591.91;4918719;28;45363;-65